sensor_id;sensor_type;location;lat;lon;timestamp;P1;durP1;ratioP1;P2;durP2;ratioP2
21905;SDS011;11117;48.644;9.006;2022-10-16T00:00:36;7.53;;;1.87;;
21905;SDS011;11117;48.644;9.006;2022-10-16T00:03:04;2.50;;;1.63;;
21905;SDS011;11117;48.644;9.006;2022-10-16T00:05:32;3.70;;;1.53;;
21905;SDS011;11117;48.644;9.006;2022-10-16T00:08:02;4.17;;;1.77;;
21905;SDS011;11117;48.644;9.006;2022-10-16T00:10:28;2.73;;;1.70;;
21905;SDS011;11117;48.644;9.006;2022-10-16T00:12:55;3.03;;;1.80;;
21905;SDS011;11117;48.644;9.006;2022-10-16T00:15:20;4.57;;;1.60;;
21905;SDS011;11117;48.644;9.006;2022-10-16T00:17:46;2.73;;;1.93;;
21905;SDS011;11117;48.644;9.006;2022-10-16T00:20:12;3.87;;;2.30;;
21905;SDS011;11117;48.644;9.006;2022-10-16T00:22:37;4.37;;;1.70;;
21905;SDS011;11117;48.644;9.006;2022-10-16T00:25:03;4.70;;;1.77;;
21905;SDS011;11117;48.644;9.006;2022-10-16T00:27:30;4.27;;;1.77;;
21905;SDS011;11117;48.644;9.006;2022-10-16T00:29:55;3.10;;;1.60;;
21905;SDS011;11117;48.644;9.006;2022-10-16T00:32:21;4.53;;;1.77;;
21905;SDS011;11117;48.644;9.006;2022-10-16T00:34:46;2.30;;;1.70;;
21905;SDS011;11117;48.644;9.006;2022-10-16T00:37:12;1.97;;;1.43;;
21905;SDS011;11117;48.644;9.006;2022-10-16T00:39:38;3.37;;;1.43;;
21905;SDS011;11117;48.644;9.006;2022-10-16T00:42:04;2.13;;;1.40;;
21905;SDS011;11117;48.644;9.006;2022-10-16T00:44:43;2.73;;;1.23;;
21905;SDS011;11117;48.644;9.006;2022-10-16T00:47:53;6.30;;;1.40;;
21905;SDS011;11117;48.644;9.006;2022-10-16T00:50:13;4.23;;;1.50;;
21905;SDS011;11117;48.644;9.006;2022-10-16T00:52:51;3.90;;;1.50;;
21905;SDS011;11117;48.644;9.006;2022-10-16T00:55:18;3.07;;;1.50;;
21905;SDS011;11117;48.644;9.006;2022-10-16T00:57:44;3.03;;;1.40;;
21905;SDS011;11117;48.644;9.006;2022-10-16T01:00:14;2.17;;;1.40;;
21905;SDS011;11117;48.644;9.006;2022-10-16T01:02:44;3.73;;;1.40;;
21905;SDS011;11117;48.644;9.006;2022-10-16T01:05:16;3.43;;;1.50;;
21905;SDS011;11117;48.644;9.006;2022-10-16T01:07:55;6.50;;;1.50;;
21905;SDS011;11117;48.644;9.006;2022-10-16T01:10:48;5.63;;;1.83;;
21905;SDS011;11117;48.644;9.006;2022-10-16T01:13:32;1.60;;;1.40;;
21905;SDS011;11117;48.644;9.006;2022-10-16T01:21:22;3.63;;;1.60;;
21905;SDS011;11117;48.644;9.006;2022-10-16T01:24:09;1.70;;;1.50;;
21905;SDS011;11117;48.644;9.006;2022-10-16T01:32:33;1.73;;;1.50;;
21905;SDS011;11117;48.644;9.006;2022-10-16T01:35:06;4.57;;;1.63;;
21905;SDS011;11117;48.644;9.006;2022-10-16T01:37:40;2.50;;;1.60;;
21905;SDS011;11117;48.644;9.006;2022-10-16T01:40:20;1.87;;;1.57;;
21905;SDS011;11117;48.644;9.006;2022-10-16T01:42:52;4.97;;;1.60;;
21905;SDS011;11117;48.644;9.006;2022-10-16T01:45:33;4.37;;;1.60;;
21905;SDS011;11117;48.644;9.006;2022-10-16T01:48:00;5.97;;;1.60;;
21905;SDS011;11117;48.644;9.006;2022-10-16T01:50:28;3.13;;;1.70;;
21905;SDS011;11117;48.644;9.006;2022-10-16T01:52:54;3.90;;;1.67;;
21905;SDS011;11117;48.644;9.006;2022-10-16T01:55:28;3.87;;;1.63;;
21905;SDS011;11117;48.644;9.006;2022-10-16T01:57:57;5.33;;;1.80;;
21905;SDS011;11117;48.644;9.006;2022-10-16T02:00:25;2.90;;;1.50;;
21905;SDS011;11117;48.644;9.006;2022-10-16T02:02:54;4.20;;;1.60;;
21905;SDS011;11117;48.644;9.006;2022-10-16T02:05:30;3.37;;;1.70;;
21905;SDS011;11117;48.644;9.006;2022-10-16T02:08:01;5.50;;;1.57;;
21905;SDS011;11117;48.644;9.006;2022-10-16T02:10:27;1.93;;;1.50;;
21905;SDS011;11117;48.644;9.006;2022-10-16T02:12:55;4.47;;;1.57;;
21905;SDS011;11117;48.644;9.006;2022-10-16T02:15:25;10.90;;;1.70;;
21905;SDS011;11117;48.644;9.006;2022-10-16T02:17:50;4.10;;;1.40;;
21905;SDS011;11117;48.644;9.006;2022-10-16T02:20:17;7.73;;;1.40;;
21905;SDS011;11117;48.644;9.006;2022-10-16T02:22:49;5.93;;;1.60;;
21905;SDS011;11117;48.644;9.006;2022-10-16T02:25:36;3.47;;;1.53;;
21905;SDS011;11117;48.644;9.006;2022-10-16T02:30:37;8.83;;;1.30;;
21905;SDS011;11117;48.644;9.006;2022-10-16T02:33:26;3.13;;;1.63;;
21905;SDS011;11117;48.644;9.006;2022-10-16T02:35:54;1.60;;;1.43;;
21905;SDS011;11117;48.644;9.006;2022-10-16T02:38:21;2.73;;;1.30;;
21905;SDS011;11117;48.644;9.006;2022-10-16T02:40:49;3.70;;;1.60;;
21905;SDS011;11117;48.644;9.006;2022-10-16T02:43:15;1.63;;;1.30;;
21905;SDS011;11117;48.644;9.006;2022-10-16T02:45:41;3.93;;;1.30;;
21905;SDS011;11117;48.644;9.006;2022-10-16T02:48:07;5.93;;;1.40;;
21905;SDS011;11117;48.644;9.006;2022-10-16T02:50:32;4.27;;;1.50;;
21905;SDS011;11117;48.644;9.006;2022-10-16T02:52:58;2.50;;;1.40;;
21905;SDS011;11117;48.644;9.006;2022-10-16T02:55:24;3.93;;;1.40;;
21905;SDS011;11117;48.644;9.006;2022-10-16T02:57:49;3.53;;;1.60;;
21905;SDS011;11117;48.644;9.006;2022-10-16T03:00:18;4.10;;;1.90;;
21905;SDS011;11117;48.644;9.006;2022-10-16T03:02:43;5.00;;;1.50;;
21905;SDS011;11117;48.644;9.006;2022-10-16T03:05:10;6.03;;;1.30;;
21905;SDS011;11117;48.644;9.006;2022-10-16T03:07:35;3.10;;;1.50;;
21905;SDS011;11117;48.644;9.006;2022-10-16T03:10:01;2.50;;;1.50;;
21905;SDS011;11117;48.644;9.006;2022-10-16T03:12:27;4.10;;;1.70;;
21905;SDS011;11117;48.644;9.006;2022-10-16T03:14:54;3.40;;;1.30;;
21905;SDS011;11117;48.644;9.006;2022-10-16T03:17:20;1.30;;;1.20;;
21905;SDS011;11117;48.644;9.006;2022-10-16T03:19:45;2.47;;;1.50;;
21905;SDS011;11117;48.644;9.006;2022-10-16T03:22:11;2.47;;;1.40;;
21905;SDS011;11117;48.644;9.006;2022-10-16T03:24:37;3.97;;;1.50;;
21905;SDS011;11117;48.644;9.006;2022-10-16T03:27:02;3.40;;;1.70;;
21905;SDS011;11117;48.644;9.006;2022-10-16T03:29:28;2.93;;;1.70;;
21905;SDS011;11117;48.644;9.006;2022-10-16T03:31:53;3.03;;;1.60;;
21905;SDS011;11117;48.644;9.006;2022-10-16T03:34:19;3.00;;;1.50;;
21905;SDS011;11117;48.644;9.006;2022-10-16T03:36:44;7.97;;;1.63;;
21905;SDS011;11117;48.644;9.006;2022-10-16T03:39:10;4.43;;;1.50;;
21905;SDS011;11117;48.644;9.006;2022-10-16T03:41:35;2.80;;;1.30;;
21905;SDS011;11117;48.644;9.006;2022-10-16T03:44:01;3.47;;;1.50;;
21905;SDS011;11117;48.644;9.006;2022-10-16T03:46:27;6.33;;;2.00;;
21905;SDS011;11117;48.644;9.006;2022-10-16T03:48:52;1.50;;;1.40;;
21905;SDS011;11117;48.644;9.006;2022-10-16T03:51:18;1.63;;;1.50;;
21905;SDS011;11117;48.644;9.006;2022-10-16T03:53:43;2.60;;;1.40;;
21905;SDS011;11117;48.644;9.006;2022-10-16T03:56:09;5.43;;;1.67;;
21905;SDS011;11117;48.644;9.006;2022-10-16T03:58:34;6.63;;;1.50;;
21905;SDS011;11117;48.644;9.006;2022-10-16T04:01:00;2.27;;;1.57;;
21905;SDS011;11117;48.644;9.006;2022-10-16T04:03:25;2.60;;;1.70;;
21905;SDS011;11117;48.644;9.006;2022-10-16T04:05:51;5.17;;;2.50;;
21905;SDS011;11117;48.644;9.006;2022-10-16T04:08:16;3.17;;;2.50;;
21905;SDS011;11117;48.644;9.006;2022-10-16T04:10:42;7.17;;;2.03;;
21905;SDS011;11117;48.644;9.006;2022-10-16T04:13:08;5.27;;;1.80;;
21905;SDS011;11117;48.644;9.006;2022-10-16T04:15:34;6.43;;;1.90;;
21905;SDS011;11117;48.644;9.006;2022-10-16T04:17:59;6.90;;;2.20;;
21905;SDS011;11117;48.644;9.006;2022-10-16T04:20:25;3.80;;;1.83;;
21905;SDS011;11117;48.644;9.006;2022-10-16T04:22:50;4.50;;;3.50;;
21905;SDS011;11117;48.644;9.006;2022-10-16T04:25:16;5.07;;;2.53;;
21905;SDS011;11117;48.644;9.006;2022-10-16T04:27:41;5.20;;;2.00;;
21905;SDS011;11117;48.644;9.006;2022-10-16T04:30:07;2.23;;;1.90;;
21905;SDS011;11117;48.644;9.006;2022-10-16T04:32:33;4.63;;;1.50;;
21905;SDS011;11117;48.644;9.006;2022-10-16T04:34:59;6.40;;;1.63;;
21905;SDS011;11117;48.644;9.006;2022-10-16T04:37:25;4.40;;;1.43;;
21905;SDS011;11117;48.644;9.006;2022-10-16T04:39:51;2.50;;;1.60;;
21905;SDS011;11117;48.644;9.006;2022-10-16T04:42:19;1.77;;;1.50;;
21905;SDS011;11117;48.644;9.006;2022-10-16T04:44:45;5.90;;;1.70;;
21905;SDS011;11117;48.644;9.006;2022-10-16T04:47:12;5.40;;;1.50;;
21905;SDS011;11117;48.644;9.006;2022-10-16T04:49:38;5.50;;;1.40;;
21905;SDS011;11117;48.644;9.006;2022-10-16T04:52:04;3.30;;;1.50;;
21905;SDS011;11117;48.644;9.006;2022-10-16T04:54:30;3.10;;;1.30;;
21905;SDS011;11117;48.644;9.006;2022-10-16T04:56:58;5.37;;;1.50;;
21905;SDS011;11117;48.644;9.006;2022-10-16T04:59:24;3.37;;;1.50;;
21905;SDS011;11117;48.644;9.006;2022-10-16T05:01:55;3.63;;;1.70;;
21905;SDS011;11117;48.644;9.006;2022-10-16T05:04:21;2.80;;;2.13;;
21905;SDS011;11117;48.644;9.006;2022-10-16T05:06:47;2.73;;;1.90;;
21905;SDS011;11117;48.644;9.006;2022-10-16T05:09:13;3.40;;;1.80;;
21905;SDS011;11117;48.644;9.006;2022-10-16T05:11:38;1.77;;;1.50;;
21905;SDS011;11117;48.644;9.006;2022-10-16T05:14:07;3.43;;;1.73;;
21905;SDS011;11117;48.644;9.006;2022-10-16T05:16:33;3.27;;;1.60;;
21905;SDS011;11117;48.644;9.006;2022-10-16T05:18:58;6.10;;;1.70;;
21905;SDS011;11117;48.644;9.006;2022-10-16T05:21:24;10.37;;;2.10;;
21905;SDS011;11117;48.644;9.006;2022-10-16T05:23:49;2.93;;;2.00;;
21905;SDS011;11117;48.644;9.006;2022-10-16T05:26:15;5.53;;;1.87;;
21905;SDS011;11117;48.644;9.006;2022-10-16T05:28:40;5.97;;;1.90;;
21905;SDS011;11117;48.644;9.006;2022-10-16T05:31:07;4.40;;;1.70;;
21905;SDS011;11117;48.644;9.006;2022-10-16T05:33:33;3.07;;;1.80;;
21905;SDS011;11117;48.644;9.006;2022-10-16T05:36:03;2.70;;;1.80;;
21905;SDS011;11117;48.644;9.006;2022-10-16T05:38:29;4.87;;;1.80;;
21905;SDS011;11117;48.644;9.006;2022-10-16T05:40:55;2.53;;;1.67;;
21905;SDS011;11117;48.644;9.006;2022-10-16T05:43:20;6.80;;;1.90;;
21905;SDS011;11117;48.644;9.006;2022-10-16T05:46:00;6.17;;;1.63;;
21905;SDS011;11117;48.644;9.006;2022-10-16T05:48:28;3.57;;;1.60;;
21905;SDS011;11117;48.644;9.006;2022-10-16T05:51:00;4.33;;;1.70;;
21905;SDS011;11117;48.644;9.006;2022-10-16T05:53:28;3.43;;;1.50;;
21905;SDS011;11117;48.644;9.006;2022-10-16T05:55:58;3.10;;;1.70;;
21905;SDS011;11117;48.644;9.006;2022-10-16T05:58:24;3.70;;;1.50;;
21905;SDS011;11117;48.644;9.006;2022-10-16T06:00:57;4.93;;;1.77;;
21905;SDS011;11117;48.644;9.006;2022-10-16T06:03:27;11.70;;;1.50;;
21905;SDS011;11117;48.644;9.006;2022-10-16T06:05:52;1.40;;;1.30;;
21905;SDS011;11117;48.644;9.006;2022-10-16T06:08:22;1.60;;;1.50;;
21905;SDS011;11117;48.644;9.006;2022-10-16T06:10:48;3.63;;;1.60;;
21905;SDS011;11117;48.644;9.006;2022-10-16T06:13:24;2.70;;;1.23;;
21905;SDS011;11117;48.644;9.006;2022-10-16T06:15:50;2.47;;;1.60;;
21905;SDS011;11117;48.644;9.006;2022-10-16T06:18:16;5.93;;;1.57;;
21905;SDS011;11117;48.644;9.006;2022-10-16T06:20:44;1.70;;;1.60;;
21905;SDS011;11117;48.644;9.006;2022-10-16T06:23:09;2.10;;;1.43;;
21905;SDS011;11117;48.644;9.006;2022-10-16T06:25:35;4.80;;;1.70;;
21905;SDS011;11117;48.644;9.006;2022-10-16T06:28:01;3.97;;;1.60;;
21905;SDS011;11117;48.644;9.006;2022-10-16T06:30:26;3.93;;;1.37;;
21905;SDS011;11117;48.644;9.006;2022-10-16T06:32:52;4.97;;;1.50;;
21905;SDS011;11117;48.644;9.006;2022-10-16T06:35:17;5.80;;;1.60;;
21905;SDS011;11117;48.644;9.006;2022-10-16T06:37:43;4.23;;;1.70;;
21905;SDS011;11117;48.644;9.006;2022-10-16T06:40:08;3.67;;;1.60;;
21905;SDS011;11117;48.644;9.006;2022-10-16T06:42:34;4.78;;;1.77;;
21905;SDS011;11117;48.644;9.006;2022-10-16T06:45:00;5.00;;;1.43;;
21905;SDS011;11117;48.644;9.006;2022-10-16T06:47:25;3.57;;;1.43;;
21905;SDS011;11117;48.644;9.006;2022-10-16T06:49:51;3.60;;;1.70;;
21905;SDS011;11117;48.644;9.006;2022-10-16T06:52:16;3.47;;;1.40;;
21905;SDS011;11117;48.644;9.006;2022-10-16T06:54:42;3.37;;;1.30;;
21905;SDS011;11117;48.644;9.006;2022-10-16T06:57:07;5.40;;;1.60;;
21905;SDS011;11117;48.644;9.006;2022-10-16T06:59:33;4.05;;;1.40;;
21905;SDS011;11117;48.644;9.006;2022-10-16T07:01:58;15.53;;;2.17;;
21905;SDS011;11117;48.644;9.006;2022-10-16T07:04:24;5.38;;;2.10;;
21905;SDS011;11117;48.644;9.006;2022-10-16T07:06:49;17.92;;;3.50;;
21905;SDS011;11117;48.644;9.006;2022-10-16T07:09:15;1.98;;;1.52;;
21905;SDS011;11117;48.644;9.006;2022-10-16T07:11:40;11.23;;;2.13;;
21905;SDS011;11117;48.644;9.006;2022-10-16T07:14:14;3.67;;;1.48;;
21905;SDS011;11117;48.644;9.006;2022-10-16T07:16:41;3.70;;;1.35;;
21905;SDS011;11117;48.644;9.006;2022-10-16T07:19:07;4.32;;;1.48;;
21905;SDS011;11117;48.644;9.006;2022-10-16T07:21:33;3.40;;;1.60;;
21905;SDS011;11117;48.644;9.006;2022-10-16T07:23:59;2.80;;;1.40;;
21905;SDS011;11117;48.644;9.006;2022-10-16T07:26:25;6.95;;;1.42;;
21905;SDS011;11117;48.644;9.006;2022-10-16T07:28:55;4.45;;;1.85;;
21905;SDS011;11117;48.644;9.006;2022-10-16T07:31:21;6.13;;;1.50;;
21905;SDS011;11117;48.644;9.006;2022-10-16T07:33:47;1.50;;;1.40;;
21905;SDS011;11117;48.644;9.006;2022-10-16T07:36:14;5.82;;;1.63;;
21905;SDS011;11117;48.644;9.006;2022-10-16T07:38:41;3.97;;;1.67;;
21905;SDS011;11117;48.644;9.006;2022-10-16T07:41:09;3.45;;;1.30;;
21905;SDS011;11117;48.644;9.006;2022-10-16T07:43:45;2.42;;;1.80;;
21905;SDS011;11117;48.644;9.006;2022-10-16T07:46:12;3.20;;;1.65;;
21905;SDS011;11117;48.644;9.006;2022-10-16T07:48:37;3.78;;;1.63;;
21905;SDS011;11117;48.644;9.006;2022-10-16T07:51:04;4.07;;;1.60;;
21905;SDS011;11117;48.644;9.006;2022-10-16T07:53:31;6.72;;;1.80;;
21905;SDS011;11117;48.644;9.006;2022-10-16T07:56:01;2.97;;;1.80;;
21905;SDS011;11117;48.644;9.006;2022-10-16T07:58:29;2.10;;;1.60;;
21905;SDS011;11117;48.644;9.006;2022-10-16T08:00:55;4.13;;;2.58;;
21905;SDS011;11117;48.644;9.006;2022-10-16T08:03:22;9.02;;;1.83;;
21905;SDS011;11117;48.644;9.006;2022-10-16T08:05:48;7.07;;;1.48;;
21905;SDS011;11117;48.644;9.006;2022-10-16T08:08:14;5.90;;;1.80;;
21905;SDS011;11117;48.644;9.006;2022-10-16T08:10:41;4.63;;;1.70;;
21905;SDS011;11117;48.644;9.006;2022-10-16T08:13:07;5.43;;;1.60;;
21905;SDS011;11117;48.644;9.006;2022-10-16T08:15:33;3.47;;;1.63;;
21905;SDS011;11117;48.644;9.006;2022-10-16T08:17:59;3.92;;;1.50;;
21905;SDS011;11117;48.644;9.006;2022-10-16T08:20:30;7.45;;;1.45;;
21905;SDS011;11117;48.644;9.006;2022-10-16T08:22:57;1.48;;;1.30;;
21905;SDS011;11117;48.644;9.006;2022-10-16T08:25:22;4.45;;;1.65;;
21905;SDS011;11117;48.644;9.006;2022-10-16T08:27:49;5.43;;;1.50;;
21905;SDS011;11117;48.644;9.006;2022-10-16T08:30:15;3.60;;;1.58;;
21905;SDS011;11117;48.644;9.006;2022-10-16T08:32:43;4.85;;;1.50;;
21905;SDS011;11117;48.644;9.006;2022-10-16T08:35:09;2.78;;;1.60;;
21905;SDS011;11117;48.644;9.006;2022-10-16T08:37:35;9.25;;;1.85;;
21905;SDS011;11117;48.644;9.006;2022-10-16T08:40:01;2.40;;;1.38;;
21905;SDS011;11117;48.644;9.006;2022-10-16T08:42:35;4.30;;;1.77;;
21905;SDS011;11117;48.644;9.006;2022-10-16T08:48:20;4.15;;;1.30;;
21905;SDS011;11117;48.644;9.006;2022-10-16T08:50:56;7.05;;;1.40;;
21905;SDS011;11117;48.644;9.006;2022-10-16T08:53:36;6.25;;;1.55;;
21905;SDS011;11117;48.644;9.006;2022-10-16T08:56:07;4.25;;;1.38;;
21905;SDS011;11117;48.644;9.006;2022-10-16T08:58:33;3.83;;;1.30;;
21905;SDS011;11117;48.644;9.006;2022-10-16T09:01:00;3.90;;;1.30;;
21905;SDS011;11117;48.644;9.006;2022-10-16T09:08:39;4.05;;;1.40;;
21905;SDS011;11117;48.644;9.006;2022-10-16T09:11:45;7.85;;;1.40;;
21905;SDS011;11117;48.644;9.006;2022-10-16T09:17:29;2.67;;;1.20;;
21905;SDS011;11117;48.644;9.006;2022-10-16T09:20:19;7.30;;;1.25;;
21905;SDS011;11117;48.644;9.006;2022-10-16T09:25:28;4.70;;;1.30;;
21905;SDS011;11117;48.644;9.006;2022-10-16T09:27:54;2.00;;;1.35;;
21905;SDS011;11117;48.644;9.006;2022-10-16T09:30:21;4.47;;;1.48;;
21905;SDS011;11117;48.644;9.006;2022-10-16T09:32:48;8.40;;;1.55;;
21905;SDS011;11117;48.644;9.006;2022-10-16T09:35:37;7.20;;;1.25;;
21905;SDS011;11117;48.644;9.006;2022-10-16T09:38:19;4.90;;;1.52;;
21905;SDS011;11117;48.644;9.006;2022-10-16T09:40:57;1.80;;;1.25;;
21905;SDS011;11117;48.644;9.006;2022-10-16T09:49:00;3.95;;;1.40;;
21905;SDS011;11117;48.644;9.006;2022-10-16T09:51:31;3.10;;;1.35;;
21905;SDS011;11117;48.644;9.006;2022-10-16T09:54:00;1.15;;;1.05;;
21905;SDS011;11117;48.644;9.006;2022-10-16T09:56:28;3.13;;;1.08;;
21905;SDS011;11117;48.644;9.006;2022-10-16T09:58:56;3.78;;;1.13;;
21905;SDS011;11117;48.644;9.006;2022-10-16T10:01:27;5.63;;;1.00;;
21905;SDS011;11117;48.644;9.006;2022-10-16T10:04:02;4.55;;;1.08;;
21905;SDS011;11117;48.644;9.006;2022-10-16T10:06:32;1.25;;;1.00;;
21905;SDS011;11117;48.644;9.006;2022-10-16T10:09:13;2.70;;;1.00;;
21905;SDS011;11117;48.644;9.006;2022-10-16T10:11:43;8.60;;;1.05;;
21905;SDS011;11117;48.644;9.006;2022-10-16T10:14:20;1.20;;;0.90;;
21905;SDS011;11117;48.644;9.006;2022-10-16T10:19:46;4.00;;;0.90;;
21905;SDS011;11117;48.644;9.006;2022-10-16T10:22:30;2.78;;;1.13;;
21905;SDS011;11117;48.644;9.006;2022-10-16T10:24:57;3.17;;;1.20;;
21905;SDS011;11117;48.644;9.006;2022-10-16T10:27:39;4.47;;;1.10;;
21905;SDS011;11117;48.644;9.006;2022-10-16T10:30:27;6.10;;;1.60;;
21905;SDS011;11117;48.644;9.006;2022-10-16T10:36:29;3.90;;;1.13;;
21905;SDS011;11117;48.644;9.006;2022-10-16T10:53:02;1.92;;;0.93;;
21905;SDS011;11117;48.644;9.006;2022-10-16T10:55:52;1.20;;;1.10;;
21905;SDS011;11117;48.644;9.006;2022-10-16T11:06:26;5.38;;;1.30;;
21905;SDS011;11117;48.644;9.006;2022-10-16T11:08:55;4.25;;;1.20;;
21905;SDS011;11117;48.644;9.006;2022-10-16T11:11:40;6.78;;;1.25;;
21905;SDS011;11117;48.644;9.006;2022-10-16T11:14:17;3.60;;;1.00;;
21905;SDS011;11117;48.644;9.006;2022-10-16T11:17:02;4.68;;;1.13;;
21905;SDS011;11117;48.644;9.006;2022-10-16T11:19:38;3.05;;;1.25;;
21905;SDS011;11117;48.644;9.006;2022-10-16T11:22:24;3.42;;;1.52;;
21905;SDS011;11117;48.644;9.006;2022-10-16T11:24:59;3.08;;;1.13;;
21905;SDS011;11117;48.644;9.006;2022-10-16T11:27:52;2.70;;;1.58;;
21905;SDS011;11117;48.644;9.006;2022-10-16T11:30:57;4.35;;;1.25;;
21905;SDS011;11117;48.644;9.006;2022-10-16T11:36:14;4.15;;;1.70;;
21905;SDS011;11117;48.644;9.006;2022-10-16T11:47:30;4.13;;;1.30;;
21905;SDS011;11117;48.644;9.006;2022-10-16T11:50:06;4.47;;;1.65;;
21905;SDS011;11117;48.644;9.006;2022-10-16T11:55:46;3.00;;;1.17;;
21905;SDS011;11117;48.644;9.006;2022-10-16T11:58:17;5.32;;;1.40;;
21905;SDS011;11117;48.644;9.006;2022-10-16T12:01:16;5.15;;;1.45;;
21905;SDS011;11117;48.644;9.006;2022-10-16T12:06:40;4.32;;;1.30;;
21905;SDS011;11117;48.644;9.006;2022-10-16T12:09:17;2.97;;;1.30;;
21905;SDS011;11117;48.644;9.006;2022-10-16T12:11:47;3.55;;;1.20;;
21905;SDS011;11117;48.644;9.006;2022-10-16T12:16:50;2.35;;;1.33;;
21905;SDS011;11117;48.644;9.006;2022-10-16T12:19:24;3.08;;;1.40;;
21905;SDS011;11117;48.644;9.006;2022-10-16T12:21:52;2.58;;;1.00;;
21905;SDS011;11117;48.644;9.006;2022-10-16T12:24:21;3.50;;;1.15;;
21905;SDS011;11117;48.644;9.006;2022-10-16T12:27:03;1.73;;;1.30;;
21905;SDS011;11117;48.644;9.006;2022-10-16T12:34:56;4.30;;;1.27;;
21905;SDS011;11117;48.644;9.006;2022-10-16T12:37:24;3.00;;;1.10;;
21905;SDS011;11117;48.644;9.006;2022-10-16T12:39:58;2.72;;;1.08;;
21905;SDS011;11117;48.644;9.006;2022-10-16T12:42:35;3.72;;;1.20;;
21905;SDS011;11117;48.644;9.006;2022-10-16T12:45:01;3.50;;;1.23;;
21905;SDS011;11117;48.644;9.006;2022-10-16T12:47:51;2.72;;;1.30;;
21905;SDS011;11117;48.644;9.006;2022-10-16T12:53:18;1.30;;;1.20;;
21905;SDS011;11117;48.644;9.006;2022-10-16T13:00:56;3.80;;;1.48;;
21905;SDS011;11117;48.644;9.006;2022-10-16T13:03:30;5.70;;;1.48;;
21905;SDS011;11117;48.644;9.006;2022-10-16T13:06:36;2.35;;;1.15;;
21905;SDS011;11117;48.644;9.006;2022-10-16T13:11:51;6.57;;;1.35;;
21905;SDS011;11117;48.644;9.006;2022-10-16T13:17:40;2.53;;;1.30;;
21905;SDS011;11117;48.644;9.006;2022-10-16T13:22:49;2.60;;;1.40;;
21905;SDS011;11117;48.644;9.006;2022-10-16T13:28:10;4.90;;;1.50;;
21905;SDS011;11117;48.644;9.006;2022-10-16T13:35:58;3.50;;;1.50;;
21905;SDS011;11117;48.644;9.006;2022-10-16T13:38:35;1.95;;;1.33;;
21905;SDS011;11117;48.644;9.006;2022-10-16T13:41:05;3.20;;;1.35;;
21905;SDS011;11117;48.644;9.006;2022-10-16T13:43:59;5.78;;;1.33;;
21905;SDS011;11117;48.644;9.006;2022-10-16T13:46:24;6.55;;;1.23;;
21905;SDS011;11117;48.644;9.006;2022-10-16T13:49:00;3.30;;;1.30;;
21905;SDS011;11117;48.644;9.006;2022-10-16T13:51:28;2.25;;;1.50;;
21905;SDS011;11117;48.644;9.006;2022-10-16T13:53:55;3.45;;;1.20;;
21905;SDS011;11117;48.644;9.006;2022-10-16T13:56:21;3.20;;;1.25;;
21905;SDS011;11117;48.644;9.006;2022-10-16T13:59:00;2.25;;;1.40;;
21905;SDS011;11117;48.644;9.006;2022-10-16T14:01:31;1.77;;;1.17;;
21905;SDS011;11117;48.644;9.006;2022-10-16T14:04:05;2.53;;;1.23;;
21905;SDS011;11117;48.644;9.006;2022-10-16T14:06:33;2.90;;;1.08;;
21905;SDS011;11117;48.644;9.006;2022-10-16T14:11:32;2.38;;;1.30;;
21905;SDS011;11117;48.644;9.006;2022-10-16T14:13:59;3.80;;;1.70;;
21905;SDS011;11117;48.644;9.006;2022-10-16T14:16:27;5.72;;;1.50;;
21905;SDS011;11117;48.644;9.006;2022-10-16T14:19:02;5.97;;;1.70;;
21905;SDS011;11117;48.644;9.006;2022-10-16T14:21:30;4.43;;;1.40;;
21905;SDS011;11117;48.644;9.006;2022-10-16T14:23:55;3.17;;;1.58;;
21905;SDS011;11117;48.644;9.006;2022-10-16T14:26:26;2.15;;;1.70;;
21905;SDS011;11117;48.644;9.006;2022-10-16T14:31:42;4.20;;;1.30;;
21905;SDS011;11117;48.644;9.006;2022-10-16T14:39:49;3.65;;;1.50;;
21905;SDS011;11117;48.644;9.006;2022-10-16T14:42:16;2.05;;;1.38;;
21905;SDS011;11117;48.644;9.006;2022-10-16T14:44:44;2.75;;;1.30;;
21905;SDS011;11117;48.644;9.006;2022-10-16T14:47:15;2.55;;;1.38;;
21905;SDS011;11117;48.644;9.006;2022-10-16T14:49:44;2.80;;;1.30;;
21905;SDS011;11117;48.644;9.006;2022-10-16T14:52:11;9.32;;;1.35;;
21905;SDS011;11117;48.644;9.006;2022-10-16T14:54:37;4.10;;;1.17;;
21905;SDS011;11117;48.644;9.006;2022-10-16T14:57:03;2.65;;;1.85;;
21905;SDS011;11117;48.644;9.006;2022-10-16T14:59:36;7.68;;;1.85;;
21905;SDS011;11117;48.644;9.006;2022-10-16T15:04:50;4.28;;;1.50;;
21905;SDS011;11117;48.644;9.006;2022-10-16T15:07:16;4.78;;;1.73;;
21905;SDS011;11117;48.644;9.006;2022-10-16T15:09:41;2.55;;;1.52;;
21905;SDS011;11117;48.644;9.006;2022-10-16T15:12:07;3.80;;;1.52;;
21905;SDS011;11117;48.644;9.006;2022-10-16T15:14:32;6.53;;;1.60;;
21905;SDS011;11117;48.644;9.006;2022-10-16T15:16:58;3.25;;;1.58;;
21905;SDS011;11117;48.644;9.006;2022-10-16T15:19:24;4.80;;;1.63;;
21905;SDS011;11117;48.644;9.006;2022-10-16T15:21:49;4.18;;;1.58;;
21905;SDS011;11117;48.644;9.006;2022-10-16T15:24:15;5.07;;;1.45;;
21905;SDS011;11117;48.644;9.006;2022-10-16T15:26:41;7.47;;;1.65;;
21905;SDS011;11117;48.644;9.006;2022-10-16T15:29:06;3.08;;;1.50;;
21905;SDS011;11117;48.644;9.006;2022-10-16T15:31:32;2.33;;;1.60;;
21905;SDS011;11117;48.644;9.006;2022-10-16T15:33:58;2.85;;;1.60;;
21905;SDS011;11117;48.644;9.006;2022-10-16T15:36:28;8.10;;;1.70;;
21905;SDS011;11117;48.644;9.006;2022-10-16T15:38:54;3.28;;;1.60;;
21905;SDS011;11117;48.644;9.006;2022-10-16T15:41:22;12.63;;;1.92;;
21905;SDS011;11117;48.644;9.006;2022-10-16T15:43:48;4.68;;;1.90;;
21905;SDS011;11117;48.644;9.006;2022-10-16T15:46:14;2.40;;;1.60;;
21905;SDS011;11117;48.644;9.006;2022-10-16T15:48:42;6.28;;;1.90;;
21905;SDS011;11117;48.644;9.006;2022-10-16T15:51:08;2.25;;;1.73;;
21905;SDS011;11117;48.644;9.006;2022-10-16T15:53:56;5.00;;;2.13;;
21905;SDS011;11117;48.644;9.006;2022-10-16T15:56:25;5.47;;;2.20;;
21905;SDS011;11117;48.644;9.006;2022-10-16T15:58:51;5.50;;;2.22;;
21905;SDS011;11117;48.644;9.006;2022-10-16T16:01:17;5.20;;;2.20;;
21905;SDS011;11117;48.644;9.006;2022-10-16T16:03:43;8.43;;;2.33;;
21905;SDS011;11117;48.644;9.006;2022-10-16T16:06:09;4.75;;;1.92;;
21905;SDS011;11117;48.644;9.006;2022-10-16T16:08:37;6.32;;;2.55;;
21905;SDS011;11117;48.644;9.006;2022-10-16T16:11:07;6.35;;;2.00;;
21905;SDS011;11117;48.644;9.006;2022-10-16T16:13:35;4.13;;;2.10;;
21905;SDS011;11117;48.644;9.006;2022-10-16T16:16:01;11.85;;;2.20;;
21905;SDS011;11117;48.644;9.006;2022-10-16T16:18:26;5.00;;;1.95;;
21905;SDS011;11117;48.644;9.006;2022-10-16T16:20:52;10.00;;;2.30;;
21905;SDS011;11117;48.644;9.006;2022-10-16T16:23:17;7.05;;;3.15;;
21905;SDS011;11117;48.644;9.006;2022-10-16T16:25:43;8.85;;;3.10;;
21905;SDS011;11117;48.644;9.006;2022-10-16T16:28:08;6.00;;;3.35;;
21905;SDS011;11117;48.644;9.006;2022-10-16T16:30:37;4.90;;;3.03;;
21905;SDS011;11117;48.644;9.006;2022-10-16T16:33:02;5.53;;;2.80;;
21905;SDS011;11117;48.644;9.006;2022-10-16T16:35:28;7.05;;;3.10;;
21905;SDS011;11117;48.644;9.006;2022-10-16T16:37:53;5.03;;;3.92;;
21905;SDS011;11117;48.644;9.006;2022-10-16T16:40:19;10.60;;;5.00;;
21905;SDS011;11117;48.644;9.006;2022-10-16T16:42:47;4.93;;;3.60;;
21905;SDS011;11117;48.644;9.006;2022-10-16T16:45:13;8.55;;;2.97;;
21905;SDS011;11117;48.644;9.006;2022-10-16T16:47:39;8.93;;;3.03;;
21905;SDS011;11117;48.644;9.006;2022-10-16T16:50:04;4.63;;;3.15;;
21905;SDS011;11117;48.644;9.006;2022-10-16T16:52:30;6.65;;;3.40;;
21905;SDS011;11117;48.644;9.006;2022-10-16T16:54:56;6.60;;;3.40;;
21905;SDS011;11117;48.644;9.006;2022-10-16T16:57:21;5.47;;;3.40;;
21905;SDS011;11117;48.644;9.006;2022-10-16T16:59:49;14.18;;;3.13;;
21905;SDS011;11117;48.644;9.006;2022-10-16T17:02:15;8.38;;;3.20;;
21905;SDS011;11117;48.644;9.006;2022-10-16T17:07:46;5.10;;;3.20;;
21905;SDS011;11117;48.644;9.006;2022-10-16T17:14:15;9.93;;;3.60;;